Hovedside
METAR-TAF:

METAR-TAF

Lufthavner :

NWS Office

Pohnpei, Mikronesia

breddegrad: 06-58N, lengdegrad: 158-13E, høyde over havet: 39 m

Gjeldene værobservasjon

Denne rapporten ble laget for 1 time og 22 minutter siden, klokken 00:52 UTC
Vind 6 kt fra Nord-nordøst
Temperatur 31°C
Luftfuktighet 79%
Trykk 1009 hPa
Sikt: 24.1 km
Spredte skyer i en høyde av 1800 ft
Brutte skyer i en høyde av 13000 ft
Overskyet i en høyde av 30000 ft

METAR: PTTP 200052Z 03006KT 15SM SCT018 BKN130 OVC300 31/27 A2980 RMK SLP061 T03110279

Tid: 13:14 (02:14 UTC)


TAF: fraværende

Værobservasjoner og værvarsel for over 4000 flyplasser (METAR- og TAF-rapporter).

Tilgjengelige stasjoner er representert av de røde og gule prikkene på kartet.

Hold musepekeren over prikken for å se navnet på stasjonen.

Klikk så for å se værobservasjoner og -varsler.

For å forandre kartet kan du klikke på den grønne knappen med svart kryss for å zoome inn, på den grønne knappen med strek for å zoome ut, eller på de grønne pilene for å se tilstøtende kart.


METAR-TAF: